createdAt,value
2018-08-24T00:00:13.253Z,11.97
2018-08-24T00:02:41.694Z,12.97
2018-08-24T00:05:10.098Z,8.03
2018-08-24T00:07:38.522Z,9.30
2018-08-24T00:10:07.028Z,9.07
2018-08-24T00:12:35.468Z,10.13
2018-08-24T00:15:03.905Z,8.93
2018-08-24T00:17:32.339Z,8.27
2018-08-24T00:20:01.542Z,7.97
2018-08-24T00:22:30.072Z,7.00
2018-08-24T00:24:58.558Z,7.27
2018-08-24T00:27:27.051Z,4.97
2018-08-24T00:29:55.441Z,6.00
2018-08-24T00:32:23.867Z,5.63
2018-08-24T00:34:53.113Z,7.70
2018-08-24T00:37:21.514Z,6.53
2018-08-24T00:39:50.814Z,5.27
2018-08-24T00:42:19.460Z,4.70
2018-08-24T00:44:47.888Z,5.17
2018-08-24T00:47:16.338Z,4.73
2018-08-24T00:49:44.859Z,4.17
2018-08-24T00:52:13.245Z,4.50
2018-08-24T00:54:41.667Z,2.93
2018-08-24T00:57:10.071Z,3.70
2018-08-24T00:59:38.474Z,2.70
2018-08-24T01:02:06.983Z,5.17
2018-08-24T01:04:36.508Z,3.40
2018-08-24T01:07:11.572Z,3.60
2018-08-24T01:09:40.664Z,4.17
2018-08-24T01:12:10.056Z,4.77
2018-08-24T01:14:39.265Z,3.23
2018-08-24T01:17:13.133Z,3.90
2018-08-24T01:19:42.077Z,3.03
2018-08-24T01:22:10.464Z,4.03
2018-08-24T01:24:38.920Z,3.17
2018-08-24T01:27:08.051Z,8.53
2018-08-24T01:29:37.658Z,3.17
2018-08-24T01:32:06.539Z,3.43
2018-08-24T01:34:35.956Z,5.30
2018-08-24T01:37:04.494Z,3.10
2018-08-24T01:39:33.840Z,3.50
2018-08-24T01:42:02.446Z,3.60
2018-08-24T01:44:31.000Z,3.40
2018-08-24T01:46:59.448Z,2.93
2018-08-24T01:49:27.941Z,5.07
2018-08-24T01:51:56.393Z,4.23
2018-08-24T01:54:24.785Z,5.57
2018-08-24T01:56:53.212Z,6.43
2018-08-24T01:59:21.640Z,4.63
2018-08-24T02:01:50.110Z,5.70
2018-08-24T02:04:19.155Z,5.67
2018-08-24T02:06:47.703Z,5.50
2018-08-24T02:09:16.134Z,5.80
2018-08-24T02:11:44.577Z,7.87
2018-08-24T02:14:18.613Z,8.00
2018-08-24T02:16:46.968Z,6.27
2018-08-24T02:19:16.609Z,6.73
2018-08-24T02:21:50.668Z,5.97
2018-08-24T02:24:19.354Z,5.93
2018-08-24T02:26:48.051Z,6.03
2018-08-24T02:29:16.459Z,7.57
2018-08-24T02:31:48.877Z,7.10
2018-08-24T02:34:17.309Z,9.47
2018-08-24T02:36:50.674Z,8.93
2018-08-24T02:39:20.221Z,6.13
2018-08-24T02:41:48.817Z,7.77
2018-08-24T02:44:17.291Z,6.63
2018-08-24T02:46:46.432Z,8.37
2018-08-24T02:49:14.948Z,7.27
2018-08-24T02:51:43.436Z,6.67
2018-08-24T02:54:11.829Z,5.50
2018-08-24T02:56:40.205Z,6.20
2018-08-24T02:59:11.619Z,7.33
2018-08-24T03:01:40.006Z,4.97
2018-08-24T03:04:08.451Z,6.30
2018-08-24T03:06:37.412Z,4.43
2018-08-24T03:09:08.940Z,7.33
2018-08-24T03:11:38.056Z,6.90
2018-08-24T03:14:06.724Z,6.00
2018-08-24T03:16:35.296Z,10.17
2018-08-24T03:19:04.119Z,8.57
2018-08-24T03:21:32.557Z,7.80
2018-08-24T03:24:00.975Z,6.03
2018-08-24T03:26:29.381Z,4.43
2018-08-24T03:28:57.815Z,8.03
2018-08-24T03:31:26.200Z,5.77
2018-08-24T03:33:54.568Z,9.17
2018-08-24T03:36:22.987Z,5.73
2018-08-24T03:38:52.101Z,4.13
2018-08-24T03:41:23.479Z,6.37
2018-08-24T03:43:51.878Z,6.70
2018-08-24T03:46:20.356Z,5.57
2018-08-24T03:48:48.836Z,4.73
2018-08-24T03:51:17.285Z,8.23
2018-08-24T03:53:45.800Z,12.17
2018-08-24T03:56:14.430Z,8.43
2018-08-24T03:58:43.030Z,6.63
2018-08-24T04:01:11.412Z,5.03
2018-08-24T04:03:39.889Z,7.50
2018-08-24T04:06:08.301Z,6.53
2018-08-24T04:08:36.698Z,6.20
2018-08-24T04:11:05.535Z,8.30
2018-08-24T04:13:34.252Z,8.17
2018-08-24T04:16:02.648Z,7.83
2018-08-24T04:18:31.086Z,4.10
2018-08-24T04:20:59.515Z,6.50
2018-08-24T04:23:28.030Z,8.03
2018-08-24T04:25:56.508Z,4.97
2018-08-24T04:28:24.894Z,8.77
2018-08-24T04:30:53.371Z,8.67
2018-08-24T04:33:21.754Z,6.20
2018-08-24T04:35:50.224Z,8.90
2018-08-24T04:38:18.718Z,5.73
2018-08-24T04:40:47.112Z,6.70
2018-08-24T04:43:15.617Z,5.23
2018-08-24T04:45:44.215Z,6.40
2018-08-24T04:48:12.664Z,9.50
2018-08-24T04:50:41.101Z,6.67
2018-08-24T04:53:09.695Z,8.70
2018-08-24T04:55:38.285Z,6.67
2018-08-24T04:58:06.760Z,6.03
2018-08-24T05:00:35.741Z,5.90
2018-08-24T05:03:04.165Z,3.63
2018-08-24T05:05:32.561Z,5.80
2018-08-24T05:08:01.145Z,6.17
2018-08-24T05:10:29.576Z,7.40
2018-08-24T05:12:57.975Z,4.57
2018-08-24T05:15:27.134Z,8.47
2018-08-24T05:17:55.787Z,7.53
2018-08-24T05:20:24.995Z,8.43
2018-08-24T05:22:53.508Z,6.57
2018-08-24T05:25:21.972Z,5.40
2018-08-24T05:27:50.421Z,6.43
2018-08-24T05:30:18.897Z,6.93
2018-08-24T05:32:47.860Z,6.00
2018-08-24T05:37:49.217Z,7.33
2018-08-24T05:40:17.702Z,3.83
2018-08-24T05:42:46.197Z,7.40
2018-08-24T05:45:20.570Z,5.80
2018-08-24T05:47:49.660Z,5.80
2018-08-24T05:50:18.104Z,5.87
2018-08-24T05:52:46.564Z,5.83
2018-08-24T05:55:15.147Z,5.83
2018-08-24T05:57:43.925Z,6.63
2018-08-24T06:00:12.384Z,6.93
2018-08-24T06:02:40.874Z,6.93
2018-08-24T06:05:09.315Z,7.97
2018-08-24T06:07:37.932Z,10.63
2018-08-24T06:10:06.900Z,7.10
2018-08-24T06:12:35.314Z,9.47
2018-08-24T06:16:15.809Z,4.67
2018-08-24T06:19:04.268Z,7.50
2018-08-24T06:21:38.478Z,11.57
2018-08-24T06:24:07.063Z,6.90
2018-08-24T06:26:35.764Z,7.93
2018-08-24T06:29:04.376Z,11.30
2018-08-24T06:31:49.488Z,14.63
2018-08-24T06:34:18.453Z,12.40
2018-08-24T06:36:49.384Z,12.67
2018-08-24T06:39:18.157Z,8.80
2018-08-24T06:41:52.695Z,13.90
2018-08-24T06:44:22.489Z,9.63
2018-08-24T06:46:52.961Z,13.20
2018-08-24T06:49:21.592Z,9.03
2018-08-24T06:51:50.145Z,6.70
2018-08-24T06:54:19.566Z,9.30
2018-08-24T06:56:48.481Z,7.23
2018-08-24T06:59:17.628Z,9.87
2018-08-24T07:01:46.423Z,9.27
2018-08-24T07:04:15.113Z,9.53
2018-08-24T07:06:44.329Z,7.77
2018-08-24T07:09:13.441Z,5.63
2018-08-24T07:11:42.497Z,9.93
2018-08-24T07:14:12.200Z,7.57
2018-08-24T07:16:41.145Z,6.37
2018-08-24T07:19:11.111Z,10.63
2018-08-24T07:21:41.281Z,6.93
2018-08-24T07:24:19.250Z,9.00
2018-08-24T07:26:47.928Z,6.53
2018-08-24T07:29:31.241Z,4.23
2018-08-24T07:32:00.501Z,4.07
2018-08-24T07:34:32.512Z,5.87
2018-08-24T07:37:08.959Z,7.83
2018-08-24T07:39:38.169Z,4.87
2018-08-24T07:42:06.820Z,6.23
2018-08-24T07:44:40.616Z,6.17
2018-08-24T07:47:10.270Z,4.73
2018-08-24T07:49:38.795Z,5.23
2018-08-24T07:52:07.510Z,4.23
2018-08-24T07:54:36.393Z,4.87
2018-08-24T07:57:06.175Z,6.80
2018-08-24T07:59:43.607Z,3.80
2018-08-24T08:02:12.645Z,5.63
2018-08-24T08:04:41.531Z,4.00
2018-08-24T08:07:10.020Z,5.53
2018-08-24T08:09:38.913Z,5.07
2018-08-24T08:12:07.921Z,4.03
2018-08-24T08:14:36.800Z,5.67
2018-08-24T08:17:05.337Z,5.07
2018-08-24T08:19:33.899Z,5.07
2018-08-24T08:22:03.143Z,5.23
2018-08-24T08:24:31.730Z,5.50
2018-08-24T08:27:00.497Z,4.33
2018-08-24T08:30:02.569Z,2.77
2018-08-24T08:32:31.856Z,4.20
2018-08-24T08:35:02.205Z,4.27
2018-08-24T08:37:31.402Z,7.10
2018-08-24T08:40:02.305Z,7.47
2018-08-24T08:42:32.344Z,6.00
2018-08-24T08:45:01.529Z,5.00
2018-08-24T08:47:30.730Z,6.40
2018-08-24T08:50:00.220Z,7.87
2018-08-24T08:52:29.681Z,5.53
2018-08-24T08:54:59.011Z,5.97
2018-08-24T08:57:28.635Z,8.23
2018-08-24T08:59:57.989Z,5.13
2018-08-24T09:02:27.655Z,4.33
2018-08-24T09:04:57.255Z,3.97
2018-08-24T09:07:27.408Z,6.10
2018-08-24T09:09:57.248Z,4.33
2018-08-24T09:12:26.438Z,6.23
2018-08-24T09:14:56.090Z,4.50
2018-08-24T09:17:30.377Z,5.37
2018-08-24T09:20:05.052Z,4.17
2018-08-24T09:22:39.100Z,5.13
2018-08-24T09:25:13.951Z,6.03
2018-08-24T09:27:48.977Z,2.77
2018-08-24T09:30:19.185Z,3.87
2018-08-24T09:32:49.982Z,5.93
2018-08-24T09:35:19.911Z,6.40
2018-08-24T09:37:49.172Z,4.40
2018-08-24T09:40:19.122Z,7.37
2018-08-24T09:42:48.679Z,6.67
2018-08-24T09:45:18.602Z,5.73
2018-08-24T09:47:53.545Z,4.67
2018-08-24T09:50:28.741Z,6.63
2018-08-24T09:53:03.073Z,5.20
2018-08-24T09:55:37.955Z,6.47
2018-08-24T09:58:07.543Z,5.20
2018-08-24T10:00:42.351Z,3.63
2018-08-24T10:03:17.562Z,3.40
2018-08-24T10:05:52.329Z,6.47
2018-08-24T10:08:31.525Z,7.37
2018-08-24T10:11:01.531Z,5.03
2018-08-24T10:13:32.444Z,6.37
2018-08-24T10:16:02.614Z,5.83
2018-08-24T10:18:32.528Z,4.77
2018-08-24T10:21:03.195Z,7.07
2018-08-24T10:23:32.767Z,7.00
2018-08-24T10:26:02.072Z,5.87
2018-08-24T10:28:31.812Z,10.30
2018-08-24T10:31:01.204Z,5.60
2018-08-24T10:33:30.931Z,5.17
2018-08-24T10:36:00.196Z,5.40
2018-08-24T10:38:29.623Z,4.83
2018-08-24T10:40:58.671Z,5.83
2018-08-24T10:43:29.130Z,4.77
2018-08-24T10:45:58.522Z,7.47
2018-08-24T10:48:28.031Z,6.00
2018-08-24T10:50:57.380Z,6.87
2018-08-24T10:53:26.447Z,6.03
2018-08-24T10:55:55.776Z,6.27
2018-08-24T10:58:24.557Z,5.70
2018-08-24T11:00:54.562Z,7.30
2018-08-24T11:03:23.415Z,3.83
2018-08-24T11:05:53.114Z,6.77
2018-08-24T11:08:22.252Z,6.90
2018-08-24T11:10:51.743Z,4.40
2018-08-24T11:13:20.409Z,5.63
2018-08-24T11:15:49.965Z,5.50
2018-08-24T11:18:19.161Z,4.33
2018-08-24T11:20:48.007Z,5.53
2018-08-24T11:23:17.933Z,7.17
2018-08-24T11:25:46.488Z,6.23
2018-08-24T11:28:15.172Z,5.73
2018-08-24T11:30:43.892Z,5.30
2018-08-24T11:33:12.871Z,6.30
2018-08-24T11:35:43.041Z,7.23
2018-08-24T11:38:12.604Z,5.67
2018-08-24T11:40:42.528Z,4.57
2018-08-24T11:43:11.855Z,5.03
2018-08-24T11:45:42.145Z,5.63
2018-08-24T11:48:11.602Z,4.30
2018-08-24T11:50:42.396Z,4.90
2018-08-24T11:53:12.403Z,5.83
2018-08-24T11:55:42.820Z,5.83
2018-08-24T11:58:13.107Z,4.93
2018-08-24T12:00:42.651Z,6.73
2018-08-24T12:03:13.041Z,4.63
2018-08-24T12:05:43.195Z,5.23
2018-08-24T12:08:14.377Z,4.63
2018-08-24T12:10:44.064Z,6.10
2018-08-24T12:13:13.793Z,5.43
2018-08-24T12:15:44.215Z,3.17
2018-08-24T12:18:15.000Z,3.53
2018-08-24T12:20:45.035Z,5.37
2018-08-24T12:23:14.246Z,4.87
2018-08-24T12:25:43.990Z,3.97
2018-08-24T12:28:15.620Z,2.97
2018-08-24T12:30:45.635Z,3.90
2018-08-24T12:33:15.268Z,5.67
2018-08-24T12:35:44.693Z,4.23
2018-08-24T12:38:14.929Z,4.90
2018-08-24T12:40:45.576Z,4.77
2018-08-24T12:43:15.945Z,4.73
2018-08-24T12:45:46.450Z,5.57
2018-08-24T12:48:16.219Z,4.33
2018-08-24T12:50:48.443Z,3.17
2018-08-24T12:53:17.654Z,6.77
2018-08-24T12:55:48.040Z,6.47
2018-08-24T12:58:18.147Z,7.70
2018-08-24T13:00:51.658Z,4.10
2018-08-24T13:03:21.146Z,2.57
2018-08-24T13:05:50.924Z,6.53
2018-08-24T13:08:21.122Z,6.53
2018-08-24T13:10:50.776Z,3.63
2018-08-24T13:13:20.178Z,3.13
2018-08-24T13:15:49.406Z,3.77
2018-08-24T13:18:46.973Z,4.50
2018-08-24T13:21:17.103Z,3.70
2018-08-24T13:23:47.065Z,5.23
2018-08-24T13:26:17.335Z,6.17
2018-08-24T13:28:47.463Z,6.37
2018-08-24T13:31:18.208Z,3.83
2018-08-24T13:33:48.936Z,3.43
2018-08-24T13:36:19.785Z,7.07
2018-08-24T13:38:50.079Z,3.43
2018-08-24T13:41:19.596Z,7.67
2018-08-24T13:43:49.307Z,3.43
2018-08-24T13:46:20.519Z,5.53
2018-08-24T13:48:51.748Z,4.73
2018-08-24T13:51:21.945Z,3.27
2018-08-24T13:53:52.392Z,5.87
2018-08-24T13:56:22.021Z,5.80
2018-08-24T13:58:52.914Z,4.97
2018-08-24T14:01:23.838Z,3.60
2018-08-24T14:03:53.780Z,4.17
2018-08-24T14:06:23.445Z,5.13
2018-08-24T14:08:53.155Z,5.80
2018-08-24T14:11:24.064Z,3.60
2018-08-24T14:13:53.578Z,4.10
2018-08-24T14:16:22.879Z,5.03
2018-08-24T14:18:59.985Z,7.43
2018-08-24T14:21:30.093Z,3.83
2018-08-24T14:24:00.490Z,5.67
2018-08-24T14:26:29.766Z,4.77
2018-08-24T14:28:59.858Z,8.30
2018-08-24T14:31:30.909Z,4.33
2018-08-24T14:34:01.406Z,5.27
2018-08-24T14:36:32.542Z,5.70
2018-08-24T14:39:01.872Z,5.57
2018-08-24T14:41:31.541Z,5.03
2018-08-24T14:44:01.480Z,5.63
2018-08-24T14:46:31.393Z,7.97
2018-08-24T14:49:01.570Z,4.80
2018-08-24T14:51:31.206Z,5.33
2018-08-24T14:54:01.735Z,5.70
2018-08-24T14:56:32.493Z,5.20
2018-08-24T14:59:01.912Z,5.87
2018-08-24T15:01:32.201Z,7.17
2018-08-24T15:04:02.607Z,4.77
2018-08-24T15:06:32.571Z,6.13
2018-08-24T15:09:04.126Z,5.03
2018-08-24T15:11:33.679Z,9.73
2018-08-24T15:14:03.180Z,7.70
2018-08-24T15:16:32.620Z,7.67
2018-08-24T15:19:02.182Z,5.53
2018-08-24T15:21:31.391Z,9.83
2018-08-24T15:24:03.001Z,6.27
2018-08-24T15:26:33.758Z,3.87
2018-08-24T15:29:04.320Z,5.40
2018-08-24T15:31:34.775Z,6.83
2018-08-24T15:34:05.990Z,4.53
2018-08-24T15:36:35.151Z,4.73
2018-08-24T15:39:08.972Z,4.10
2018-08-24T15:41:39.651Z,5.87
2018-08-24T15:44:10.664Z,6.33
2018-08-24T15:46:40.348Z,4.07
2018-08-24T15:49:11.132Z,4.70
2018-08-24T15:51:40.990Z,7.03
2018-08-24T15:54:10.569Z,5.00
2018-08-24T15:56:40.583Z,5.80
2018-08-24T15:59:10.764Z,5.10
2018-08-24T16:01:40.964Z,7.13
2018-08-24T16:04:12.331Z,3.73
2018-08-24T16:06:42.651Z,5.80
2018-08-24T16:09:13.387Z,6.53
2018-08-24T16:11:44.474Z,4.83
2018-08-24T16:14:14.443Z,4.10
2018-08-24T16:16:44.328Z,4.73
2018-08-24T16:19:14.157Z,4.73
2018-08-24T16:21:43.728Z,4.83
2018-08-24T16:24:13.829Z,5.33
2018-08-24T16:26:43.438Z,6.73
2018-08-24T16:29:14.311Z,90.27
2018-08-24T16:31:43.027Z,62.77
2018-08-24T16:34:11.868Z,38.70
2018-08-24T16:36:40.698Z,24.13
2018-08-24T16:39:10.444Z,18.57
2018-08-24T16:41:39.518Z,15.50
2018-08-24T16:44:08.065Z,17.27
2018-08-24T16:46:36.470Z,15.87
2018-08-24T16:49:05.461Z,13.87
2018-08-24T16:51:34.973Z,15.90
2018-08-24T16:54:04.689Z,12.00
2018-08-24T16:56:36.028Z,10.80
2018-08-24T16:59:30.834Z,14.27
2018-08-24T17:02:01.226Z,11.97
2018-08-24T17:04:30.334Z,9.17
2018-08-24T17:07:00.611Z,10.17
2018-08-24T17:09:30.626Z,9.67
2018-08-24T17:12:00.108Z,9.87
2018-08-24T17:14:28.764Z,7.93
2018-08-24T17:16:58.020Z,9.10
2018-08-24T17:19:27.123Z,8.57
2018-08-24T17:21:56.189Z,10.63
2018-08-24T17:24:24.729Z,8.83
2018-08-24T17:26:54.443Z,9.17
2018-08-24T17:29:23.860Z,8.43
2018-08-24T17:31:52.737Z,8.20
2018-08-24T17:34:21.972Z,8.87
2018-08-24T17:36:52.149Z,8.17
2018-08-24T17:39:20.770Z,10.27
2018-08-24T17:41:50.205Z,7.97
2018-08-24T17:44:19.961Z,9.13
2018-08-24T17:46:50.280Z,8.43
2018-08-24T17:49:21.737Z,8.00
2018-08-24T17:52:09.193Z,9.13
2018-08-24T17:54:38.180Z,9.27
2018-08-24T17:57:07.475Z,8.10
2018-08-24T17:59:36.127Z,11.37
2018-08-24T18:02:05.032Z,10.60
2018-08-24T18:04:34.989Z,11.27
2018-08-24T18:07:04.373Z,11.33
2018-08-24T18:09:33.833Z,9.30
2018-08-24T18:12:03.273Z,10.17
2018-08-24T18:14:36.999Z,12.50
2018-08-24T18:17:06.362Z,10.33
2018-08-24T18:19:35.844Z,13.87
2018-08-24T18:22:05.709Z,12.73
2018-08-24T18:24:36.109Z,11.43
2018-08-24T18:27:05.080Z,11.30
2018-08-24T18:29:34.220Z,11.93
2018-08-24T18:32:03.501Z,12.10
2018-08-24T18:34:32.732Z,14.03
2018-08-24T18:37:01.704Z,12.87
2018-08-24T18:39:30.203Z,13.10
2018-08-24T18:41:58.801Z,14.83
2018-08-24T18:44:27.855Z,14.47
2018-08-24T18:46:56.771Z,13.63
2018-08-24T18:49:25.312Z,15.40
2018-08-24T18:51:54.266Z,14.60
2018-08-24T18:54:36.491Z,13.97
2018-08-24T18:57:05.954Z,15.23
2018-08-24T18:59:34.576Z,16.67
2018-08-24T19:02:03.848Z,14.23
2018-08-24T19:04:33.519Z,13.23
2018-08-24T19:07:04.542Z,11.90
2018-08-24T19:09:33.853Z,13.10
2018-08-24T19:12:08.126Z,10.60
2018-08-24T19:14:38.030Z,11.23
2018-08-24T19:17:11.757Z,9.57
2018-08-24T19:19:46.547Z,10.83
2018-08-24T19:22:15.693Z,9.30
2018-08-24T19:24:45.150Z,8.13
2018-08-24T19:27:13.840Z,9.27
2018-08-24T19:29:48.101Z,11.00
2018-08-24T19:32:16.466Z,7.23
2018-08-24T19:34:44.976Z,6.67
2018-08-24T19:37:13.625Z,7.70
2018-08-24T19:39:46.300Z,6.70
2018-08-24T19:42:20.258Z,7.93
2018-08-24T19:44:48.793Z,6.43
2018-08-24T19:47:22.517Z,8.93
2018-08-24T19:49:51.136Z,6.77
2018-08-24T19:52:19.555Z,5.70
2018-08-24T19:54:48.024Z,6.80
2018-08-24T19:57:21.848Z,6.43
2018-08-24T19:59:50.311Z,7.03
2018-08-24T20:02:18.783Z,5.10
2018-08-24T20:04:48.390Z,5.20
2018-08-24T20:07:22.038Z,4.50
2018-08-24T20:09:55.836Z,4.87
2018-08-24T20:12:24.279Z,4.77
2018-08-24T20:14:58.052Z,5.43
2018-08-24T20:17:29.769Z,3.03
2018-08-24T20:19:59.020Z,4.03
2018-08-24T20:22:27.599Z,5.10
2018-08-24T20:24:56.012Z,4.53
2018-08-24T20:27:24.484Z,4.17
2018-08-24T20:29:53.363Z,3.43
2018-08-24T20:32:21.888Z,4.03
2018-08-24T20:34:51.729Z,4.10
2018-08-24T20:37:20.964Z,5.27
2018-08-24T20:39:49.712Z,7.93
2018-08-24T20:42:18.112Z,7.47
2018-08-24T20:44:47.186Z,4.77
2018-08-24T20:47:16.034Z,5.90
2018-08-24T20:49:44.390Z,7.00
2018-08-24T20:52:12.809Z,6.87
2018-08-24T20:54:41.246Z,14.33
2018-08-24T20:57:09.696Z,6.13
2018-08-24T20:59:38.068Z,7.93
2018-08-24T21:02:06.805Z,7.53
2018-08-24T21:04:35.323Z,5.63
2018-08-24T21:07:03.724Z,5.43
2018-08-24T21:09:32.124Z,5.07
2018-08-24T21:12:00.630Z,7.73
2018-08-24T21:14:29.048Z,6.47
2018-08-24T21:16:57.539Z,6.40
2018-08-24T21:19:26.006Z,6.63
2018-08-24T21:21:55.448Z,7.37
2018-08-24T21:24:24.501Z,7.53
2018-08-24T21:26:54.089Z,6.83
2018-08-24T21:29:22.610Z,8.03
2018-08-24T21:31:51.080Z,7.80
2018-08-24T21:34:19.469Z,6.33
2018-08-24T21:36:47.852Z,9.40
2018-08-24T21:39:16.345Z,5.30
2018-08-24T21:41:45.339Z,5.27
2018-08-24T21:44:13.742Z,7.50
2018-08-24T21:46:42.404Z,6.53
2018-08-24T21:49:10.777Z,5.93
2018-08-24T21:51:39.418Z,7.73
2018-08-24T21:54:08.240Z,7.13
2018-08-24T21:56:36.657Z,7.07
2018-08-24T21:59:05.249Z,6.23
2018-08-24T22:01:34.035Z,5.57
2018-08-24T22:04:02.617Z,6.00
2018-08-24T22:06:31.018Z,8.07
2018-08-24T22:08:59.360Z,6.43
2018-08-24T22:11:34.502Z,6.53
2018-08-24T22:14:04.252Z,6.00
2018-08-24T22:16:33.371Z,5.60
2018-08-24T22:19:02.752Z,7.00
2018-08-24T22:21:31.107Z,6.97
2018-08-24T22:23:59.490Z,6.40
2018-08-24T22:26:28.127Z,5.50
2018-08-24T22:28:56.492Z,6.07
2018-08-24T22:31:25.030Z,10.70
2018-08-24T22:33:53.512Z,13.13
2018-08-24T22:36:21.947Z,24.63
2018-08-24T22:38:50.312Z,23.40
2018-08-24T22:41:18.703Z,12.90
2018-08-24T22:43:47.357Z,95.20
2018-08-24T22:46:15.884Z,363.40
2018-08-24T22:48:44.628Z,341.23
2018-08-24T22:51:13.153Z,428.40
2018-08-24T22:53:41.708Z,440.27
2018-08-24T22:56:10.271Z,401.90
2018-08-24T22:58:38.973Z,377.53
2018-08-24T23:01:07.866Z,355.30
2018-08-24T23:03:36.536Z,295.40
2018-08-24T23:06:05.248Z,124.77
2018-08-24T23:08:33.973Z,138.90
2018-08-24T23:11:02.493Z,136.73
2018-08-24T23:13:31.229Z,145.80
2018-08-24T23:16:00.052Z,122.97
2018-08-24T23:18:28.935Z,85.27
2018-08-24T23:20:57.584Z,48.20
2018-08-24T23:23:26.108Z,43.83
2018-08-24T23:25:54.764Z,25.33
2018-08-24T23:28:23.255Z,28.93
2018-08-24T23:30:52.044Z,40.73
2018-08-24T23:33:20.708Z,34.10
2018-08-24T23:35:49.453Z,32.37
2018-08-24T23:38:18.168Z,28.03
2018-08-24T23:40:46.744Z,26.53
2018-08-24T23:43:15.432Z,22.33
2018-08-24T23:45:43.946Z,27.97
2018-08-24T23:48:12.713Z,19.93
2018-08-24T23:50:41.352Z,17.00
2018-08-24T23:53:09.866Z,14.83
2018-08-24T23:55:38.856Z,16.27
2018-08-24T23:58:07.364Z,14.70
